createdAt,value
2023-04-24T00:03:27.446Z,14.08
2023-04-24T00:08:31.269Z,14.04
2023-04-24T00:13:34.679Z,13.99
2023-04-24T00:18:38.213Z,13.93
2023-04-24T00:23:41.920Z,13.88
2023-04-24T00:28:45.431Z,13.89
2023-04-24T00:33:48.845Z,13.85
2023-04-24T00:38:52.374Z,13.81
2023-04-24T00:43:55.880Z,13.79
2023-04-24T00:49:01.048Z,13.80
2023-04-24T00:54:04.547Z,13.84
2023-04-24T00:59:08.266Z,13.92
2023-04-24T01:04:13.282Z,13.98
2023-04-24T01:09:18.064Z,14.00
2023-04-24T01:14:21.799Z,14.03
2023-04-24T01:19:25.208Z,14.00
2023-04-24T01:24:29.749Z,13.95
2023-04-24T01:29:33.644Z,13.92
2023-04-24T01:34:37.590Z,13.90
2023-04-24T01:39:41.117Z,13.89
2023-04-24T01:44:45.336Z,13.86
2023-04-24T01:49:49.571Z,13.87
2023-04-24T01:54:54.150Z,13.89
2023-04-24T01:59:58.089Z,13.93
2023-04-24T02:05:02.073Z,13.98
2023-04-24T02:10:06.536Z,14.00
2023-04-24T02:15:10.626Z,14.00
2023-04-24T02:20:14.049Z,14.01
2023-04-24T02:25:17.556Z,13.99
2023-04-24T02:30:21.279Z,13.97
2023-04-24T02:35:24.922Z,13.94
2023-04-24T02:40:28.411Z,13.94
2023-04-24T02:45:31.898Z,13.95
2023-04-24T02:50:35.644Z,13.95
2023-04-24T02:55:39.056Z,13.91
2023-04-24T03:00:42.571Z,13.91
2023-04-24T03:05:45.986Z,13.94
2023-04-24T03:10:49.704Z,14.01
2023-04-24T03:15:53.150Z,14.05
2023-04-24T03:20:56.845Z,14.06
2023-04-24T03:26:00.162Z,14.05
2023-04-24T03:31:05.001Z,14.06
2023-04-24T03:36:08.691Z,14.06
2023-04-24T03:41:12.951Z,14.09
2023-04-24T03:46:16.504Z,14.13
2023-04-24T03:51:19.985Z,14.20
2023-04-24T03:56:23.394Z,14.29
2023-04-24T04:01:26.911Z,14.35
2023-04-24T04:06:31.986Z,14.37
2023-04-24T04:11:36.658Z,14.39
2023-04-24T04:16:40.113Z,14.40
2023-04-24T04:21:43.749Z,14.48
2023-04-24T04:26:48.380Z,14.52
2023-04-24T04:31:52.238Z,14.58
2023-04-24T04:36:55.817Z,14.65
2023-04-24T04:41:59.847Z,14.69
2023-04-24T04:47:06.751Z,14.80
2023-04-24T04:52:10.957Z,14.88
2023-04-24T04:57:14.604Z,14.96
2023-04-24T05:02:18.179Z,15.06
2023-04-24T05:07:21.938Z,15.16
2023-04-24T05:12:25.551Z,15.24
2023-04-24T05:17:29.080Z,15.35
2023-04-24T05:22:33.201Z,15.45
2023-04-24T05:27:36.714Z,15.65
2023-04-24T05:32:40.231Z,15.92
2023-04-24T05:37:43.846Z,16.07
2023-04-24T05:42:47.262Z,16.30
2023-04-24T05:47:52.687Z,16.42
2023-04-24T05:52:56.133Z,16.52
2023-04-24T05:58:00.163Z,16.56
2023-04-24T06:03:05.150Z,16.52
2023-04-24T06:08:08.935Z,16.47
2023-04-24T06:13:13.376Z,16.57
2023-04-24T06:18:16.997Z,16.66
2023-04-24T06:23:20.509Z,16.75
2023-04-24T06:28:24.017Z,16.79
2023-04-24T06:33:27.572Z,16.89
2023-04-24T06:38:31.151Z,16.97
2023-04-24T06:43:35.079Z,16.97
2023-04-24T06:48:38.798Z,16.96
2023-04-24T06:53:42.106Z,16.93
2023-04-24T06:58:46.444Z,16.85
2023-04-24T07:03:50.099Z,16.69
2023-04-24T07:08:54.213Z,16.51
2023-04-24T07:13:57.605Z,16.35
2023-04-24T07:19:01.645Z,16.28
2023-04-24T07:24:05.265Z,16.20
2023-04-24T07:29:09.483Z,16.16
2023-04-24T07:34:12.901Z,15.89
2023-04-24T07:39:16.821Z,15.97
2023-04-24T07:44:20.239Z,16.28
2023-04-24T07:49:23.748Z,16.83
2023-04-24T07:54:27.162Z,17.53
2023-04-24T07:59:30.679Z,18.06
2023-04-24T08:04:34.862Z,18.52
2023-04-24T08:09:38.425Z,19.05
2023-04-24T08:14:42.116Z,19.31
2023-04-24T08:19:49.447Z,19.31
2023-04-24T08:24:53.168Z,19.25
2023-04-24T08:29:56.492Z,19.20
2023-04-24T08:35:01.228Z,19.17
2023-04-24T08:40:11.612Z,19.21
2023-04-24T08:45:15.218Z,19.42
2023-04-24T08:50:18.843Z,19.71
2023-04-24T08:55:22.676Z,19.99
2023-04-24T09:00:27.104Z,20.24
2023-04-24T09:05:31.442Z,20.53
2023-04-24T09:10:36.588Z,20.70
2023-04-24T09:15:42.100Z,20.86
2023-04-24T09:21:14.849Z,21.08
2023-04-24T09:26:18.374Z,21.43
2023-04-24T09:31:23.438Z,21.65
2023-04-24T09:36:42.092Z,21.88
2023-04-24T09:41:49.600Z,22.10
2023-04-24T09:46:56.106Z,22.32
2023-04-24T09:52:07.376Z,22.47
2023-04-24T09:57:10.790Z,22.62
2023-04-24T10:02:22.089Z,22.74
2023-04-24T10:07:27.771Z,22.99
2023-04-24T10:12:32.196Z,23.23
2023-04-24T10:17:36.839Z,23.54
2023-04-24T10:22:41.787Z,23.98
2023-04-24T10:27:47.257Z,24.39
2023-04-24T10:32:51.012Z,24.66
2023-04-24T10:38:08.205Z,24.97
2023-04-24T10:43:12.640Z,25.32
2023-04-24T10:48:17.373Z,25.76
2023-04-24T10:53:28.336Z,26.11
2023-04-24T10:58:53.537Z,26.52
2023-04-24T11:03:59.806Z,26.73
2023-04-24T11:09:12.407Z,26.98
2023-04-24T11:14:16.839Z,26.97
2023-04-24T11:19:27.848Z,26.94
2023-04-24T11:24:32.782Z,26.80
2023-04-24T11:29:40.293Z,26.87
2023-04-24T11:34:47.869Z,27.11
2023-04-24T11:39:53.285Z,27.23
2023-04-24T11:44:57.255Z,27.29
2023-04-24T11:50:02.842Z,27.29
2023-04-24T11:55:09.554Z,27.00
2023-04-24T12:00:21.694Z,26.47
2023-04-24T12:05:27.337Z,25.74
2023-04-24T12:10:32.858Z,25.10
2023-04-24T12:15:36.224Z,24.86
2023-04-24T12:20:42.079Z,24.95
2023-04-24T12:25:45.688Z,24.99
2023-04-24T12:30:50.115Z,25.16
2023-04-24T12:35:57.430Z,25.26
2023-04-24T12:41:09.659Z,25.29
2023-04-24T12:46:13.719Z,25.24
2023-04-24T12:51:17.928Z,25.49
2023-04-24T12:56:21.940Z,25.95
2023-04-24T13:01:25.320Z,26.30
2023-04-24T13:06:28.973Z,26.68
2023-04-24T13:11:32.388Z,26.98
2023-04-24T13:16:35.920Z,27.26
2023-04-24T13:21:39.418Z,27.32
2023-04-24T13:26:42.931Z,27.26
2023-04-24T13:31:47.829Z,27.27
2023-04-24T13:36:53.640Z,27.34
2023-04-24T13:41:58.198Z,27.43
2023-04-24T13:47:01.805Z,27.68
2023-04-24T13:52:05.226Z,28.01
2023-04-24T13:57:08.736Z,28.51
2023-04-24T14:02:12.619Z,29.21
2023-04-24T14:07:16.284Z,29.80
2023-04-24T14:12:21.023Z,31.12
2023-04-24T14:17:24.561Z,32.38
2023-04-24T14:22:29.392Z,34.32
2023-04-24T14:27:33.367Z,33.60
2023-04-24T14:32:37.465Z,31.40
2023-04-24T14:37:43.994Z,30.52
2023-04-24T14:42:47.551Z,33.16
2023-04-24T14:47:51.209Z,38.96
2023-04-24T14:52:58.641Z,43.76
2023-04-24T14:58:02.616Z,47.40
2023-04-24T15:03:06.505Z,49.75
2023-04-24T15:08:10.352Z,51.82
2023-04-24T15:13:13.978Z,52.85
2023-04-24T15:18:17.386Z,53.63
2023-04-24T15:23:21.308Z,54.09
2023-04-24T15:28:25.760Z,53.03
2023-04-24T15:33:29.054Z,48.57
2023-04-24T15:38:32.668Z,41.59
2023-04-24T15:43:36.180Z,35.71
2023-04-24T15:48:42.380Z,31.67
2023-04-24T15:53:47.419Z,28.78
2023-04-24T15:58:51.236Z,27.82
2023-04-24T16:03:54.894Z,29.40
2023-04-24T16:16:26.251Z,34.75
2023-04-24T16:21:32.258Z,33.22
2023-04-24T16:26:35.865Z,32.05
2023-04-24T16:31:39.447Z,31.52
2023-04-24T16:36:43.711Z,29.81
2023-04-24T16:42:07.193Z,27.14
2023-04-24T16:55:27.993Z,23.40
2023-04-24T17:00:31.477Z,22.26
2023-04-24T17:05:36.290Z,21.51
2023-04-24T17:10:38.369Z,20.82
2023-04-24T17:15:42.251Z,20.39
2023-04-24T17:21:06.465Z,19.88
2023-04-24T17:26:08.540Z,19.49
2023-04-24T17:31:16.423Z,19.05
2023-04-24T17:36:21.965Z,18.60
2023-04-24T17:41:46.269Z,18.23
2023-04-24T17:46:53.941Z,17.94
2023-04-24T17:51:56.055Z,17.73
2023-04-24T17:57:01.805Z,17.52
2023-04-24T18:02:04.371Z,17.35
2023-04-24T18:07:37.495Z,17.24
2023-04-24T18:18:52.867Z,16.86
2023-04-24T18:24:05.749Z,16.73
2023-04-24T18:29:10.230Z,16.59
2023-04-24T18:34:12.657Z,16.44
2023-04-24T18:39:15.138Z,16.36
2023-04-24T18:44:25.355Z,16.25
2023-04-24T18:49:27.763Z,16.18
2023-04-24T18:54:34.177Z,16.03
2023-04-24T18:59:46.667Z,15.88
2023-04-24T19:04:51.608Z,15.76
2023-04-24T19:10:56.684Z,15.49
2023-04-24T19:27:02.998Z,15.26
2023-04-24T19:32:06.622Z,15.10
2023-04-24T19:37:10.129Z,14.96
2023-04-24T19:42:13.535Z,14.83
2023-04-24T19:47:16.862Z,14.65
2023-04-24T19:52:20.389Z,14.47
2023-04-24T19:57:23.776Z,14.31
2023-04-24T20:02:27.507Z,14.13
2023-04-24T20:07:31.330Z,13.97
2023-04-24T20:12:36.171Z,13.86
2023-04-24T20:17:39.492Z,13.73
2023-04-24T20:22:42.996Z,13.64
2023-04-24T20:27:46.720Z,13.58
2023-04-24T20:32:50.062Z,13.48
2023-04-24T20:37:53.969Z,13.37
2023-04-24T20:42:57.983Z,13.31
2023-04-24T20:48:01.395Z,13.24
2023-04-24T20:53:06.553Z,13.24
2023-04-24T20:58:10.484Z,13.19
2023-04-24T21:03:14.041Z,13.16
2023-04-24T21:08:17.915Z,13.14
2023-04-24T21:13:21.228Z,13.12
2023-04-24T21:18:25.046Z,13.07
2023-04-24T21:23:28.463Z,13.03
2023-04-24T21:28:32.390Z,12.99
2023-04-24T21:33:35.899Z,12.96
2023-04-24T21:38:40.539Z,12.89
2023-04-24T21:43:45.832Z,12.84
2023-04-24T21:48:50.147Z,12.82
2023-04-24T21:53:53.652Z,12.85
2023-04-24T21:58:57.574Z,12.89
2023-04-24T22:04:03.544Z,12.92
2023-04-24T22:09:07.889Z,12.99
2023-04-24T22:14:11.607Z,12.97
2023-04-24T22:19:15.235Z,13.02
2023-04-24T22:24:19.152Z,13.06
2023-04-24T22:29:22.562Z,13.06
2023-04-24T22:34:25.974Z,13.10
2023-04-24T22:39:29.385Z,13.09
2023-04-24T22:44:32.910Z,13.07
2023-04-24T22:49:36.457Z,13.07
2023-04-24T22:54:39.932Z,13.05
2023-04-24T22:59:44.070Z,13.04
2023-04-24T23:04:48.632Z,13.03
2023-04-24T23:09:52.020Z,13.04
2023-04-24T23:14:55.633Z,13.01
2023-04-24T23:19:59.050Z,13.02
2023-04-24T23:25:02.668Z,13.04
2023-04-24T23:30:07.164Z,13.04
2023-04-24T23:35:10.923Z,13.03
2023-04-24T23:40:14.343Z,13.02
2023-04-24T23:45:17.759Z,12.98
2023-04-24T23:50:21.376Z,12.92
2023-04-24T23:55:24.879Z,12.84
